<?xml version="1.0" encoding="UTF-8" standalone="no" ?>
<gpx xmlns="http://www.topografix.com/GPX/1/1" xmlns:xsi="http://www.w3.org/2001/XMLSchema-instance" xsi:schemaLocation="http://www.topografix.com/GPX/1/1 http://www.topografix.com/GPX/1/1/gpx.xsd" version="1.1" creator="VisuGPX - https://www.visugpx.com">
  <metadata>
    <name>Ajaccio-chemin de la corniche</name>
    <desc><![CDATA[Ajaccio-chemin de la corniche]]></desc>
  </metadata>
  <trk>
    <name><![CDATA[2014-07-23-01]]></name>
    <trkseg>
      <trkpt lat="41.90275" lon="8.6191">
        <ele>17.6</ele>
        <time>2014-07-23T07:42:18Z</time>
      </trkpt>
      <trkpt lat="41.90277" lon="8.61881">
        <ele>18.6</ele>
        <time>2014-07-23T07:42:39Z</time>
      </trkpt>
      <trkpt lat="41.90282" lon="8.61853">
        <ele>19.1</ele>
        <time>2014-07-23T07:42:59Z</time>
      </trkpt>
      <trkpt lat="41.90287" lon="8.61823">
        <ele>19</ele>
        <time>2014-07-23T07:43:20Z</time>
      </trkpt>
      <trkpt lat="41.90293" lon="8.61795">
        <ele>18.7</ele>
        <time>2014-07-23T07:43:41Z</time>
      </trkpt>
      <trkpt lat="41.90299" lon="8.61767">
        <ele>18.5</ele>
        <time>2014-07-23T07:44:03Z</time>
      </trkpt>
      <trkpt lat="41.90304" lon="8.61739">
        <ele>18.3</ele>
        <time>2014-07-23T07:44:24Z</time>
      </trkpt>
      <trkpt lat="41.90307" lon="8.61709">
        <ele>18.3</ele>
        <time>2014-07-23T07:44:45Z</time>
      </trkpt>
      <trkpt lat="41.90295" lon="8.61684">
        <ele>18.7</ele>
        <time>2014-07-23T07:45:07Z</time>
      </trkpt>
      <trkpt lat="41.90274" lon="8.61672">
        <ele>19.2</ele>
        <time>2014-07-23T07:45:49Z</time>
      </trkpt>
      <trkpt lat="41.90296" lon="8.61676">
        <ele>18.5</ele>
        <time>2014-07-23T07:46:22Z</time>
      </trkpt>
      <trkpt lat="41.90317" lon="8.61685">
        <ele>18</ele>
        <time>2014-07-23T07:46:39Z</time>
      </trkpt>
      <trkpt lat="41.90338" lon="8.61676">
        <ele>17.8</ele>
        <time>2014-07-23T07:46:55Z</time>
      </trkpt>
      <trkpt lat="41.90356" lon="8.6166">
        <ele>17.7</ele>
        <time>2014-07-23T07:47:10Z</time>
      </trkpt>
      <trkpt lat="41.90367" lon="8.61635">
        <ele>17.7</ele>
        <time>2014-07-23T07:47:28Z</time>
      </trkpt>
      <trkpt lat="41.90376" lon="8.61607">
        <ele>18.2</ele>
        <time>2014-07-23T07:47:46Z</time>
      </trkpt>
      <trkpt lat="41.90384" lon="8.6158">
        <ele>19.2</ele>
        <time>2014-07-23T07:48:12Z</time>
      </trkpt>
      <trkpt lat="41.90382" lon="8.61551">
        <ele>19.5</ele>
        <time>2014-07-23T07:48:29Z</time>
      </trkpt>
      <trkpt lat="41.9038" lon="8.61522">
        <ele>19.7</ele>
        <time>2014-07-23T07:48:46Z</time>
      </trkpt>
      <trkpt lat="41.90387" lon="8.61494">
        <ele>19.8</ele>
        <time>2014-07-23T07:49:03Z</time>
      </trkpt>
      <trkpt lat="41.90403" lon="8.61475">
        <ele>19.3</ele>
        <time>2014-07-23T07:49:22Z</time>
      </trkpt>
      <trkpt lat="41.90422" lon="8.61461">
        <ele>18.3</ele>
        <time>2014-07-23T07:49:40Z</time>
      </trkpt>
      <trkpt lat="41.90441" lon="8.61445">
        <ele>17.5</ele>
        <time>2014-07-23T07:49:58Z</time>
      </trkpt>
      <trkpt lat="41.9046" lon="8.6143">
        <ele>16.5</ele>
        <time>2014-07-23T07:50:16Z</time>
      </trkpt>
      <trkpt lat="41.9048" lon="8.61416">
        <ele>15.5</ele>
        <time>2014-07-23T07:50:35Z</time>
      </trkpt>
      <trkpt lat="41.905" lon="8.61403">
        <ele>14.3</ele>
        <time>2014-07-23T07:50:54Z</time>
      </trkpt>
      <trkpt lat="41.9052" lon="8.61391">
        <ele>13.5</ele>
        <time>2014-07-23T07:51:13Z</time>
      </trkpt>
      <trkpt lat="41.90539" lon="8.61378">
        <ele>12.8</ele>
        <time>2014-07-23T07:51:31Z</time>
      </trkpt>
      <trkpt lat="41.9056" lon="8.61367">
        <ele>12.1</ele>
        <time>2014-07-23T07:51:50Z</time>
      </trkpt>
      <trkpt lat="41.9058" lon="8.61357">
        <ele>11.6</ele>
        <time>2014-07-23T07:52:08Z</time>
      </trkpt>
      <trkpt lat="41.906" lon="8.61347">
        <ele>11.3</ele>
        <time>2014-07-23T07:52:25Z</time>
      </trkpt>
      <trkpt lat="41.90622" lon="8.61338">
        <ele>11</ele>
        <time>2014-07-23T07:52:44Z</time>
      </trkpt>
      <trkpt lat="41.90642" lon="8.61331">
        <ele>10.3</ele>
        <time>2014-07-23T07:53:02Z</time>
      </trkpt>
      <trkpt lat="41.90663" lon="8.61324">
        <ele>9.6</ele>
        <time>2014-07-23T07:53:20Z</time>
      </trkpt>
      <trkpt lat="41.90685" lon="8.61318">
        <ele>9.1</ele>
        <time>2014-07-23T07:53:39Z</time>
      </trkpt>
      <trkpt lat="41.90706" lon="8.6131">
        <ele>8.3</ele>
        <time>2014-07-23T07:53:59Z</time>
      </trkpt>
      <trkpt lat="41.90727" lon="8.61302">
        <ele>7.9</ele>
        <time>2014-07-23T07:54:20Z</time>
      </trkpt>
      <trkpt lat="41.90749" lon="8.61296">
        <ele>7.4</ele>
        <time>2014-07-23T07:54:41Z</time>
      </trkpt>
      <trkpt lat="41.90769" lon="8.61283">
        <ele>7.5</ele>
        <time>2014-07-23T07:55:07Z</time>
      </trkpt>
      <trkpt lat="41.90783" lon="8.61259">
        <ele>7.6</ele>
        <time>2014-07-23T07:55:29Z</time>
      </trkpt>
      <trkpt lat="41.90795" lon="8.61234">
        <ele>8</ele>
        <time>2014-07-23T07:55:55Z</time>
      </trkpt>
      <trkpt lat="41.90799" lon="8.61205">
        <ele>10</ele>
        <time>2014-07-23T07:56:32Z</time>
      </trkpt>
      <trkpt lat="41.90798" lon="8.61175">
        <ele>12.3</ele>
        <time>2014-07-23T07:57:11Z</time>
      </trkpt>
      <trkpt lat="41.90812" lon="8.61153">
        <ele>15.1</ele>
        <time>2014-07-23T07:57:37Z</time>
      </trkpt>
      <trkpt lat="41.90833" lon="8.61161">
        <ele>16.2</ele>
        <time>2014-07-23T07:57:58Z</time>
      </trkpt>
      <trkpt lat="41.90855" lon="8.61164">
        <ele>16.5</ele>
        <time>2014-07-23T07:58:17Z</time>
      </trkpt>
      <trkpt lat="41.90877" lon="8.61166">
        <ele>16.7</ele>
        <time>2014-07-23T07:58:37Z</time>
      </trkpt>
      <trkpt lat="41.90899" lon="8.61162">
        <ele>17</ele>
        <time>2014-07-23T07:58:53Z</time>
      </trkpt>
      <trkpt lat="41.9092" lon="8.61158">
        <ele>17.7</ele>
        <time>2014-07-23T07:59:11Z</time>
      </trkpt>
      <trkpt lat="41.90942" lon="8.61155">
        <ele>18.2</ele>
        <time>2014-07-23T07:59:37Z</time>
      </trkpt>
      <trkpt lat="41.90964" lon="8.6116">
        <ele>17.5</ele>
        <time>2014-07-23T08:00:07Z</time>
      </trkpt>
      <trkpt lat="41.90982" lon="8.61175">
        <ele>18.3</ele>
        <time>2014-07-23T08:00:31Z</time>
      </trkpt>
      <trkpt lat="41.91001" lon="8.61192">
        <ele>20.7</ele>
        <time>2014-07-23T08:01:54Z</time>
      </trkpt>
      <trkpt lat="41.91022" lon="8.61198">
        <ele>24</ele>
        <time>2014-07-23T08:02:15Z</time>
      </trkpt>
      <trkpt lat="41.91041" lon="8.61212">
        <ele>25.2</ele>
        <time>2014-07-23T08:02:40Z</time>
      </trkpt>
      <trkpt lat="41.91063" lon="8.61212">
        <ele>27.1</ele>
        <time>2014-07-23T08:03:09Z</time>
      </trkpt>
      <trkpt lat="41.91085" lon="8.61209">
        <ele>29.8</ele>
        <time>2014-07-23T08:03:33Z</time>
      </trkpt>
      <trkpt lat="41.91107" lon="8.61209">
        <ele>32.5</ele>
        <time>2014-07-23T08:04:03Z</time>
      </trkpt>
      <trkpt lat="41.91129" lon="8.61206">
        <ele>35.2</ele>
        <time>2014-07-23T08:04:40Z</time>
      </trkpt>
      <trkpt lat="41.91151" lon="8.61205">
        <ele>38</ele>
        <time>2014-07-23T08:05:07Z</time>
      </trkpt>
      <trkpt lat="41.91171" lon="8.61193">
        <ele>40.7</ele>
        <time>2014-07-23T08:05:28Z</time>
      </trkpt>
      <trkpt lat="41.91192" lon="8.61197">
        <ele>43</ele>
        <time>2014-07-23T08:05:50Z</time>
      </trkpt>
      <trkpt lat="41.91215" lon="8.61199">
        <ele>45.2</ele>
        <time>2014-07-23T08:06:20Z</time>
      </trkpt>
      <trkpt lat="41.91236" lon="8.61207">
        <ele>47.2</ele>
        <time>2014-07-23T08:06:41Z</time>
      </trkpt>
      <trkpt lat="41.91258" lon="8.61208">
        <ele>49.5</ele>
        <time>2014-07-23T08:07:02Z</time>
      </trkpt>
      <trkpt lat="41.91277" lon="8.61223">
        <ele>49.5</ele>
        <time>2014-07-23T08:07:26Z</time>
      </trkpt>
      <trkpt lat="41.91286" lon="8.6125">
        <ele>48.7</ele>
        <time>2014-07-23T08:07:48Z</time>
      </trkpt>
      <trkpt lat="41.91294" lon="8.61277">
        <ele>48.2</ele>
        <time>2014-07-23T08:08:12Z</time>
      </trkpt>
      <trkpt lat="41.91305" lon="8.61302">
        <ele>48.4</ele>
        <time>2014-07-23T08:08:32Z</time>
      </trkpt>
      <trkpt lat="41.91327" lon="8.61309">
        <ele>49.4</ele>
        <time>2014-07-23T08:08:58Z</time>
      </trkpt>
      <trkpt lat="41.91349" lon="8.61305">
        <ele>49.2</ele>
        <time>2014-07-23T08:09:17Z</time>
      </trkpt>
      <trkpt lat="41.91371" lon="8.61306">
        <ele>49</ele>
        <time>2014-07-23T08:09:35Z</time>
      </trkpt>
      <trkpt lat="41.91392" lon="8.61305">
        <ele>49.2</ele>
        <time>2014-07-23T08:09:51Z</time>
      </trkpt>
      <trkpt lat="41.91413" lon="8.61303">
        <ele>48.9</ele>
        <time>2014-07-23T08:10:17Z</time>
      </trkpt>
      <trkpt lat="41.91435" lon="8.61306">
        <ele>48.9</ele>
        <time>2014-07-23T08:10:31Z</time>
      </trkpt>
      <trkpt lat="41.91452" lon="8.61325">
        <ele>48.5</ele>
        <time>2014-07-23T08:10:54Z</time>
      </trkpt>
      <trkpt lat="41.91454" lon="8.61355">
        <ele>48</ele>
        <time>2014-07-23T08:12:21Z</time>
      </trkpt>
      <trkpt lat="41.91466" lon="8.61378">
        <ele>48</ele>
        <time>2014-07-23T08:12:39Z</time>
      </trkpt>
      <trkpt lat="41.91476" lon="8.61404">
        <ele>48.2</ele>
        <time>2014-07-23T08:13:01Z</time>
      </trkpt>
      <trkpt lat="41.91481" lon="8.61433">
        <ele>48.5</ele>
        <time>2014-07-23T08:13:22Z</time>
      </trkpt>
      <trkpt lat="41.91497" lon="8.61452">
        <ele>48.9</ele>
        <time>2014-07-23T08:13:46Z</time>
      </trkpt>
      <trkpt lat="41.91517" lon="8.61464">
        <ele>49.4</ele>
        <time>2014-07-23T08:14:05Z</time>
      </trkpt>
      <trkpt lat="41.91537" lon="8.61475">
        <ele>50</ele>
        <time>2014-07-23T08:14:24Z</time>
      </trkpt>
      <trkpt lat="41.91557" lon="8.61482">
        <ele>50.9</ele>
        <time>2014-07-23T08:14:38Z</time>
      </trkpt>
      <trkpt lat="41.91577" lon="8.61497">
        <ele>52.4</ele>
        <time>2014-07-23T08:15:01Z</time>
      </trkpt>
      <trkpt lat="41.91596" lon="8.61512">
        <ele>52.7</ele>
        <time>2014-07-23T08:15:25Z</time>
      </trkpt>
      <trkpt lat="41.91613" lon="8.61531">
        <ele>53</ele>
        <time>2014-07-23T08:15:45Z</time>
      </trkpt>
      <trkpt lat="41.91631" lon="8.61549">
        <ele>53.7</ele>
        <time>2014-07-23T08:16:06Z</time>
      </trkpt>
      <trkpt lat="41.91644" lon="8.61572">
        <ele>56.2</ele>
        <time>2014-07-23T08:16:27Z</time>
      </trkpt>
      <trkpt lat="41.9166" lon="8.61592">
        <ele>57</ele>
        <time>2014-07-23T08:16:51Z</time>
      </trkpt>
      <trkpt lat="41.91677" lon="8.61611">
        <ele>58</ele>
        <time>2014-07-23T08:17:13Z</time>
      </trkpt>
      <trkpt lat="41.9169" lon="8.61636">
        <ele>59.7</ele>
        <time>2014-07-23T08:17:35Z</time>
      </trkpt>
      <trkpt lat="41.91706" lon="8.61655">
        <ele>60.7</ele>
        <time>2014-07-23T08:17:58Z</time>
      </trkpt>
      <trkpt lat="41.91719" lon="8.61679">
        <ele>61.2</ele>
        <time>2014-07-23T08:18:26Z</time>
      </trkpt>
      <trkpt lat="41.91738" lon="8.61693">
        <ele>63.2</ele>
        <time>2014-07-23T08:18:45Z</time>
      </trkpt>
      <trkpt lat="41.91759" lon="8.61705">
        <ele>66.3</ele>
        <time>2014-07-23T08:19:06Z</time>
      </trkpt>
      <trkpt lat="41.91777" lon="8.6172">
        <ele>67.3</ele>
        <time>2014-07-23T08:19:27Z</time>
      </trkpt>
      <trkpt lat="41.91798" lon="8.61728">
        <ele>68.5</ele>
        <time>2014-07-23T08:19:46Z</time>
      </trkpt>
      <trkpt lat="41.91817" lon="8.61744">
        <ele>68.9</ele>
        <time>2014-07-23T08:20:09Z</time>
      </trkpt>
      <trkpt lat="41.91838" lon="8.61755">
        <ele>69.8</ele>
        <time>2014-07-23T08:20:37Z</time>
      </trkpt>
      <trkpt lat="41.91858" lon="8.61765">
        <ele>71.8</ele>
        <time>2014-07-23T08:20:54Z</time>
      </trkpt>
      <trkpt lat="41.9188" lon="8.61765">
        <ele>72.3</ele>
        <time>2014-07-23T08:21:06Z</time>
      </trkpt>
      <trkpt lat="41.91902" lon="8.61768">
        <ele>73.9</ele>
        <time>2014-07-23T08:21:24Z</time>
      </trkpt>
      <trkpt lat="41.91923" lon="8.61763">
        <ele>75.1</ele>
        <time>2014-07-23T08:21:45Z</time>
      </trkpt>
      <trkpt lat="41.91943" lon="8.61752">
        <ele>75.3</ele>
        <time>2014-07-23T08:22:01Z</time>
      </trkpt>
      <trkpt lat="41.91963" lon="8.61738">
        <ele>74.8</ele>
        <time>2014-07-23T08:22:20Z</time>
      </trkpt>
      <trkpt lat="41.91985" lon="8.61731">
        <ele>73.9</ele>
        <time>2014-07-23T08:23:11Z</time>
      </trkpt>
      <trkpt lat="41.92006" lon="8.61723">
        <ele>73.1</ele>
        <time>2014-07-23T08:23:30Z</time>
      </trkpt>
      <trkpt lat="41.92025" lon="8.6171">
        <ele>72</ele>
        <time>2014-07-23T08:23:53Z</time>
      </trkpt>
      <trkpt lat="41.92044" lon="8.61695">
        <ele>70.4</ele>
        <time>2014-07-23T08:24:13Z</time>
      </trkpt>
      <trkpt lat="41.92063" lon="8.6168">
        <ele>69.1</ele>
        <time>2014-07-23T08:24:34Z</time>
      </trkpt>
      <trkpt lat="41.92083" lon="8.61669">
        <ele>69.8</ele>
        <time>2014-07-23T08:24:51Z</time>
      </trkpt>
      <trkpt lat="41.92104" lon="8.61678">
        <ele>69.3</ele>
        <time>2014-07-23T08:25:10Z</time>
      </trkpt>
      <trkpt lat="41.92125" lon="8.61687">
        <ele>68.6</ele>
        <time>2014-07-23T08:25:28Z</time>
      </trkpt>
      <trkpt lat="41.92145" lon="8.61697">
        <ele>68.8</ele>
        <time>2014-07-23T08:25:47Z</time>
      </trkpt>
      <trkpt lat="41.92166" lon="8.61705">
        <ele>68.5</ele>
        <time>2014-07-23T08:26:06Z</time>
      </trkpt>
      <trkpt lat="41.92188" lon="8.61713">
        <ele>68.6</ele>
        <time>2014-07-23T08:26:25Z</time>
      </trkpt>
      <trkpt lat="41.92209" lon="8.61705">
        <ele>68.5</ele>
        <time>2014-07-23T08:26:50Z</time>
      </trkpt>
      <trkpt lat="41.92226" lon="8.61724">
        <ele>68.8</ele>
        <time>2014-07-23T08:27:58Z</time>
      </trkpt>
      <trkpt lat="41.92245" lon="8.6174">
        <ele>66.5</ele>
        <time>2014-07-23T08:28:18Z</time>
      </trkpt>
      <trkpt lat="41.92242" lon="8.61768">
        <ele>65.3</ele>
        <time>2014-07-23T08:28:40Z</time>
      </trkpt>
      <trkpt lat="41.92226" lon="8.61789">
        <ele>64.1</ele>
        <time>2014-07-23T08:28:58Z</time>
      </trkpt>
      <trkpt lat="41.92211" lon="8.6181">
        <ele>63.5</ele>
        <time>2014-07-23T08:29:17Z</time>
      </trkpt>
      <trkpt lat="41.92194" lon="8.61829">
        <ele>63</ele>
        <time>2014-07-23T08:29:35Z</time>
      </trkpt>
      <trkpt lat="41.92178" lon="8.61849">
        <ele>62.9</ele>
        <time>2014-07-23T08:29:51Z</time>
      </trkpt>
      <trkpt lat="41.92162" lon="8.6187">
        <ele>62.7</ele>
        <time>2014-07-23T08:30:15Z</time>
      </trkpt>
      <trkpt lat="41.92146" lon="8.6189">
        <ele>62.4</ele>
        <time>2014-07-23T08:30:39Z</time>
      </trkpt>
      <trkpt lat="41.92147" lon="8.61919">
        <ele>63</ele>
        <time>2014-07-23T08:30:57Z</time>
      </trkpt>
      <trkpt lat="41.92151" lon="8.61947">
        <ele>63.7</ele>
        <time>2014-07-23T08:31:12Z</time>
      </trkpt>
      <trkpt lat="41.92169" lon="8.61964">
        <ele>63.2</ele>
        <time>2014-07-23T08:31:37Z</time>
      </trkpt>
      <trkpt lat="41.92191" lon="8.61962">
        <ele>62.4</ele>
        <time>2014-07-23T08:31:58Z</time>
      </trkpt>
      <trkpt lat="41.92211" lon="8.61954">
        <ele>61.9</ele>
        <time>2014-07-23T08:32:14Z</time>
      </trkpt>
      <trkpt lat="41.92232" lon="8.61945">
        <ele>61</ele>
        <time>2014-07-23T08:32:30Z</time>
      </trkpt>
      <trkpt lat="41.92254" lon="8.61937">
        <ele>59.7</ele>
        <time>2014-07-23T08:32:49Z</time>
      </trkpt>
      <trkpt lat="41.92275" lon="8.61929">
        <ele>57.2</ele>
        <time>2014-07-23T08:33:09Z</time>
      </trkpt>
      <trkpt lat="41.92297" lon="8.61933">
        <ele>54.2</ele>
        <time>2014-07-23T08:33:30Z</time>
      </trkpt>
      <trkpt lat="41.92318" lon="8.61938">
        <ele>51.9</ele>
        <time>2014-07-23T08:33:51Z</time>
      </trkpt>
      <trkpt lat="41.9234" lon="8.61945">
        <ele>50</ele>
        <time>2014-07-23T08:34:09Z</time>
      </trkpt>
      <trkpt lat="41.92358" lon="8.61961">
        <ele>48.5</ele>
        <time>2014-07-23T08:34:27Z</time>
      </trkpt>
      <trkpt lat="41.92371" lon="8.61984">
        <ele>46.7</ele>
        <time>2014-07-23T08:34:48Z</time>
      </trkpt>
      <trkpt lat="41.92382" lon="8.62009">
        <ele>45.7</ele>
        <time>2014-07-23T08:35:08Z</time>
      </trkpt>
      <trkpt lat="41.92396" lon="8.62032">
        <ele>45</ele>
        <time>2014-07-23T08:35:28Z</time>
      </trkpt>
      <trkpt lat="41.92414" lon="8.62051">
        <ele>44.5</ele>
        <time>2014-07-23T08:35:43Z</time>
      </trkpt>
      <trkpt lat="41.92428" lon="8.62072">
        <ele>44</ele>
        <time>2014-07-23T08:36:00Z</time>
      </trkpt>
      <trkpt lat="41.92445" lon="8.6209">
        <ele>44</ele>
        <time>2014-07-23T08:36:15Z</time>
      </trkpt>
      <trkpt lat="41.92456" lon="8.62116">
        <ele>42.2</ele>
        <time>2014-07-23T08:36:35Z</time>
      </trkpt>
      <trkpt lat="41.92471" lon="8.62137">
        <ele>40</ele>
        <time>2014-07-23T08:36:57Z</time>
      </trkpt>
      <trkpt lat="41.92484" lon="8.6216">
        <ele>39</ele>
        <time>2014-07-23T08:37:15Z</time>
      </trkpt>
      <trkpt lat="41.92499" lon="8.6218">
        <ele>37.9</ele>
        <time>2014-07-23T08:37:31Z</time>
      </trkpt>
      <trkpt lat="41.92516" lon="8.62199">
        <ele>36.9</ele>
        <time>2014-07-23T08:37:48Z</time>
      </trkpt>
      <trkpt lat="41.92531" lon="8.6222">
        <ele>35.7</ele>
        <time>2014-07-23T08:38:07Z</time>
      </trkpt>
      <trkpt lat="41.92544" lon="8.62244">
        <ele>34.5</ele>
        <time>2014-07-23T08:38:27Z</time>
      </trkpt>
      <trkpt lat="41.92553" lon="8.62271">
        <ele>33.2</ele>
        <time>2014-07-23T08:38:45Z</time>
      </trkpt>
      <trkpt lat="41.92567" lon="8.62294">
        <ele>32.2</ele>
        <time>2014-07-23T08:39:02Z</time>
      </trkpt>
      <trkpt lat="41.92589" lon="8.62291">
        <ele>27.2</ele>
        <time>2014-07-23T08:40:07Z</time>
      </trkpt>
      <trkpt lat="41.92611" lon="8.62292">
        <ele>18.3</ele>
        <time>2014-07-23T08:41:58Z</time>
      </trkpt>
      <trkpt lat="41.92632" lon="8.62304">
        <ele>15.1</ele>
        <time>2014-07-23T08:42:29Z</time>
      </trkpt>
      <trkpt lat="41.92647" lon="8.62309">
        <ele>13.5</ele>
        <time>2014-07-23T08:42:45Z</time>
      </trkpt>
      <trkpt lat="41.92648" lon="8.62309">
        <ele>13.3</ele>
        <time>2014-07-23T08:42:46Z</time>
      </trkpt>
    </trkseg>
  </trk>
</gpx>